sensor_id;sensor_type;location;lat;lon;timestamp;temperature;humidity
25092;DHT22;13082;52.374;4.946;2024-02-28T00:02:13;6.70;99.90
25092;DHT22;13082;52.374;4.946;2024-02-28T00:04:40;6.70;99.90
25092;DHT22;13082;52.374;4.946;2024-02-28T00:07:06;6.60;99.90
25092;DHT22;13082;52.374;4.946;2024-02-28T00:09:32;6.60;99.90
25092;DHT22;13082;52.374;4.946;2024-02-28T00:11:57;6.60;99.90
25092;DHT22;13082;52.374;4.946;2024-02-28T00:14:23;6.50;99.90
25092;DHT22;13082;52.374;4.946;2024-02-28T00:16:49;6.50;99.90
25092;DHT22;13082;52.374;4.946;2024-02-28T00:19:16;6.40;99.90
25092;DHT22;13082;52.374;4.946;2024-02-28T00:21:43;6.30;99.90
25092;DHT22;13082;52.374;4.946;2024-02-28T00:24:10;6.30;99.90
25092;DHT22;13082;52.374;4.946;2024-02-28T00:26:35;6.40;99.90
25092;DHT22;13082;52.374;4.946;2024-02-28T00:29:01;6.30;99.90
25092;DHT22;13082;52.374;4.946;2024-02-28T00:31:27;6.30;99.90
25092;DHT22;13082;52.374;4.946;2024-02-28T00:33:53;6.20;99.90
25092;DHT22;13082;52.374;4.946;2024-02-28T00:36:18;6.10;99.90
25092;DHT22;13082;52.374;4.946;2024-02-28T00:38:44;6.10;99.90
25092;DHT22;13082;52.374;4.946;2024-02-28T00:41:10;6.10;99.90
25092;DHT22;13082;52.374;4.946;2024-02-28T00:43:35;6.10;99.90
25092;DHT22;13082;52.374;4.946;2024-02-28T00:46:01;6.10;99.90
25092;DHT22;13082;52.374;4.946;2024-02-28T00:48:27;6.20;99.90
25092;DHT22;13082;52.374;4.946;2024-02-28T00:50:53;6.20;99.90
25092;DHT22;13082;52.374;4.946;2024-02-28T00:53:19;6.20;99.90
25092;DHT22;13082;52.374;4.946;2024-02-28T00:55:45;6.10;99.90
25092;DHT22;13082;52.374;4.946;2024-02-28T00:58:11;6.10;99.90
25092;DHT22;13082;52.374;4.946;2024-02-28T01:00:36;6.10;99.90
25092;DHT22;13082;52.374;4.946;2024-02-28T01:03:02;6.00;99.90
25092;DHT22;13082;52.374;4.946;2024-02-28T01:05:30;6.00;99.90
25092;DHT22;13082;52.374;4.946;2024-02-28T01:07:55;6.00;99.90
25092;DHT22;13082;52.374;4.946;2024-02-28T01:10:21;6.00;99.90
25092;DHT22;13082;52.374;4.946;2024-02-28T01:12:47;6.00;99.90
25092;DHT22;13082;52.374;4.946;2024-02-28T01:15:13;6.00;99.90
25092;DHT22;13082;52.374;4.946;2024-02-28T01:17:38;6.00;99.90
25092;DHT22;13082;52.374;4.946;2024-02-28T01:20:05;6.00;99.90
25092;DHT22;13082;52.374;4.946;2024-02-28T01:22:32;6.00;99.90
25092;DHT22;13082;52.374;4.946;2024-02-28T01:24:58;6.00;99.90
25092;DHT22;13082;52.374;4.946;2024-02-28T01:27:23;6.00;99.90
25092;DHT22;13082;52.374;4.946;2024-02-28T01:29:49;6.00;99.90
25092;DHT22;13082;52.374;4.946;2024-02-28T01:32:14;6.10;99.90
25092;DHT22;13082;52.374;4.946;2024-02-28T01:34:40;6.00;99.90
25092;DHT22;13082;52.374;4.946;2024-02-28T01:37:06;6.00;99.90
25092;DHT22;13082;52.374;4.946;2024-02-28T01:39:31;6.00;99.90
25092;DHT22;13082;52.374;4.946;2024-02-28T01:41:57;6.00;99.90
25092;DHT22;13082;52.374;4.946;2024-02-28T01:44:22;6.10;99.90
25092;DHT22;13082;52.374;4.946;2024-02-28T01:46:48;6.10;99.90
25092;DHT22;13082;52.374;4.946;2024-02-28T01:49:15;6.10;99.90
25092;DHT22;13082;52.374;4.946;2024-02-28T01:51:41;6.10;99.90
25092;DHT22;13082;52.374;4.946;2024-02-28T01:54:08;6.10;99.90
25092;DHT22;13082;52.374;4.946;2024-02-28T01:56:34;6.10;99.90
25092;DHT22;13082;52.374;4.946;2024-02-28T01:59:00;6.20;99.90
25092;DHT22;13082;52.374;4.946;2024-02-28T02:01:27;6.20;99.90
25092;DHT22;13082;52.374;4.946;2024-02-28T02:03:54;6.30;99.90
25092;DHT22;13082;52.374;4.946;2024-02-28T02:06:20;6.30;99.90
25092;DHT22;13082;52.374;4.946;2024-02-28T02:08:46;6.30;99.90
25092;DHT22;13082;52.374;4.946;2024-02-28T02:11:14;6.40;99.90
25092;DHT22;13082;52.374;4.946;2024-02-28T02:13:50;6.40;99.90
25092;DHT22;13082;52.374;4.946;2024-02-28T02:16:17;6.50;99.90
25092;DHT22;13082;52.374;4.946;2024-02-28T02:18:43;6.50;99.90
25092;DHT22;13082;52.374;4.946;2024-02-28T02:21:09;6.50;99.90
25092;DHT22;13082;52.374;4.946;2024-02-28T02:23:37;6.50;99.90
25092;DHT22;13082;52.374;4.946;2024-02-28T02:26:06;6.60;99.90
25092;DHT22;13082;52.374;4.946;2024-02-28T02:28:32;6.60;99.90
25092;DHT22;13082;52.374;4.946;2024-02-28T02:30:58;6.70;99.90
25092;DHT22;13082;52.374;4.946;2024-02-28T02:33:23;6.60;99.90
25092;DHT22;13082;52.374;4.946;2024-02-28T02:35:49;6.60;99.90
25092;DHT22;13082;52.374;4.946;2024-02-28T02:38:15;6.60;99.90
25092;DHT22;13082;52.374;4.946;2024-02-28T02:40:40;6.60;99.90
25092;DHT22;13082;52.374;4.946;2024-02-28T02:43:06;6.60;99.90
25092;DHT22;13082;52.374;4.946;2024-02-28T02:45:32;6.60;99.90
25092;DHT22;13082;52.374;4.946;2024-02-28T02:47:57;6.60;99.90
25092;DHT22;13082;52.374;4.946;2024-02-28T02:50:23;6.60;99.90
25092;DHT22;13082;52.374;4.946;2024-02-28T02:52:48;6.60;99.90
25092;DHT22;13082;52.374;4.946;2024-02-28T02:55:14;6.60;99.90
25092;DHT22;13082;52.374;4.946;2024-02-28T02:57:40;6.70;99.90
25092;DHT22;13082;52.374;4.946;2024-02-28T03:00:10;6.70;99.90
25092;DHT22;13082;52.374;4.946;2024-02-28T03:02:36;6.70;99.90
25092;DHT22;13082;52.374;4.946;2024-02-28T03:05:06;6.70;99.90
25092;DHT22;13082;52.374;4.946;2024-02-28T03:07:32;6.80;99.90
25092;DHT22;13082;52.374;4.946;2024-02-28T03:09:57;6.80;99.90
25092;DHT22;13082;52.374;4.946;2024-02-28T03:12:23;6.80;99.90
25092;DHT22;13082;52.374;4.946;2024-02-28T03:14:49;6.80;99.90
25092;DHT22;13082;52.374;4.946;2024-02-28T03:17:14;6.80;99.90
25092;DHT22;13082;52.374;4.946;2024-02-28T03:19:41;6.80;99.90
25092;DHT22;13082;52.374;4.946;2024-02-28T03:22:07;6.80;99.90
25092;DHT22;13082;52.374;4.946;2024-02-28T03:24:32;6.80;99.90
25092;DHT22;13082;52.374;4.946;2024-02-28T03:27:01;6.80;99.90
25092;DHT22;13082;52.374;4.946;2024-02-28T03:29:27;6.80;99.90
25092;DHT22;13082;52.374;4.946;2024-02-28T03:31:53;6.90;99.90
25092;DHT22;13082;52.374;4.946;2024-02-28T03:34:19;6.90;99.90
25092;DHT22;13082;52.374;4.946;2024-02-28T03:36:44;6.90;99.90
25092;DHT22;13082;52.374;4.946;2024-02-28T03:39:10;7.00;99.90
25092;DHT22;13082;52.374;4.946;2024-02-28T03:41:36;6.90;99.90
25092;DHT22;13082;52.374;4.946;2024-02-28T03:44:01;7.00;99.90
25092;DHT22;13082;52.374;4.946;2024-02-28T03:46:27;6.90;99.90
25092;DHT22;13082;52.374;4.946;2024-02-28T03:48:52;6.90;99.90
25092;DHT22;13082;52.374;4.946;2024-02-28T03:51:18;6.80;99.90
25092;DHT22;13082;52.374;4.946;2024-02-28T03:53:43;6.80;99.90
25092;DHT22;13082;52.374;4.946;2024-02-28T03:56:09;6.90;99.90
25092;DHT22;13082;52.374;4.946;2024-02-28T03:58:35;6.90;99.90
25092;DHT22;13082;52.374;4.946;2024-02-28T04:01:00;6.90;99.90
25092;DHT22;13082;52.374;4.946;2024-02-28T04:03:26;6.90;99.90
25092;DHT22;13082;52.374;4.946;2024-02-28T04:05:52;7.00;99.90
25092;DHT22;13082;52.374;4.946;2024-02-28T04:08:17;7.00;99.90
25092;DHT22;13082;52.374;4.946;2024-02-28T04:10:43;6.90;99.90
25092;DHT22;13082;52.374;4.946;2024-02-28T04:13:09;6.90;99.90
25092;DHT22;13082;52.374;4.946;2024-02-28T04:15:34;6.90;99.90
25092;DHT22;13082;52.374;4.946;2024-02-28T04:18:01;6.90;99.90
25092;DHT22;13082;52.374;4.946;2024-02-28T04:20:26;6.80;99.90
25092;DHT22;13082;52.374;4.946;2024-02-28T04:22:52;6.90;99.90
25092;DHT22;13082;52.374;4.946;2024-02-28T04:25:17;6.80;99.90
25092;DHT22;13082;52.374;4.946;2024-02-28T04:27:43;6.90;99.90
25092;DHT22;13082;52.374;4.946;2024-02-28T04:30:09;6.80;99.90
25092;DHT22;13082;52.374;4.946;2024-02-28T04:32:36;6.80;99.90
25092;DHT22;13082;52.374;4.946;2024-02-28T04:35:01;6.80;99.90
25092;DHT22;13082;52.374;4.946;2024-02-28T04:37:28;6.80;99.90
25092;DHT22;13082;52.374;4.946;2024-02-28T04:39:54;6.90;99.90
25092;DHT22;13082;52.374;4.946;2024-02-28T04:42:20;6.90;99.90
25092;DHT22;13082;52.374;4.946;2024-02-28T04:44:45;6.90;99.90
25092;DHT22;13082;52.374;4.946;2024-02-28T04:47:11;7.00;99.90
25092;DHT22;13082;52.374;4.946;2024-02-28T04:49:37;7.00;99.90
25092;DHT22;13082;52.374;4.946;2024-02-28T04:52:04;7.10;99.90
25092;DHT22;13082;52.374;4.946;2024-02-28T04:54:30;7.10;99.90
25092;DHT22;13082;52.374;4.946;2024-02-28T04:56:56;7.10;99.90
25092;DHT22;13082;52.374;4.946;2024-02-28T04:59:21;7.10;99.90
25092;DHT22;13082;52.374;4.946;2024-02-28T05:01:47;7.10;99.90
25092;DHT22;13082;52.374;4.946;2024-02-28T05:04:13;7.10;99.90
25092;DHT22;13082;52.374;4.946;2024-02-28T05:06:39;7.00;99.90
25092;DHT22;13082;52.374;4.946;2024-02-28T05:09:05;7.00;99.90
25092;DHT22;13082;52.374;4.946;2024-02-28T05:11:31;7.00;99.90
25092;DHT22;13082;52.374;4.946;2024-02-28T05:13:57;7.00;99.90
25092;DHT22;13082;52.374;4.946;2024-02-28T05:16:23;6.90;99.90
25092;DHT22;13082;52.374;4.946;2024-02-28T05:18:48;6.90;99.90
25092;DHT22;13082;52.374;4.946;2024-02-28T05:21:14;6.80;99.90
25092;DHT22;13082;52.374;4.946;2024-02-28T05:23:40;6.80;99.90
25092;DHT22;13082;52.374;4.946;2024-02-28T05:26:06;6.80;99.90
25092;DHT22;13082;52.374;4.946;2024-02-28T05:28:33;6.70;99.90
25092;DHT22;13082;52.374;4.946;2024-02-28T05:31:10;6.60;99.90
25092;DHT22;13082;52.374;4.946;2024-02-28T05:33:44;6.60;99.90
25092;DHT22;13082;52.374;4.946;2024-02-28T05:36:10;6.60;99.90
25092;DHT22;13082;52.374;4.946;2024-02-28T05:38:35;6.60;99.90
25092;DHT22;13082;52.374;4.946;2024-02-28T05:41:01;6.60;99.90
25092;DHT22;13082;52.374;4.946;2024-02-28T05:43:27;6.60;99.90
25092;DHT22;13082;52.374;4.946;2024-02-28T05:45:52;6.60;99.90
25092;DHT22;13082;52.374;4.946;2024-02-28T05:48:18;6.60;99.90
25092;DHT22;13082;52.374;4.946;2024-02-28T05:50:44;6.50;99.90
25092;DHT22;13082;52.374;4.946;2024-02-28T05:53:09;6.50;99.90
25092;DHT22;13082;52.374;4.946;2024-02-28T05:55:35;6.40;99.90
25092;DHT22;13082;52.374;4.946;2024-02-28T05:58:01;6.40;99.90
25092;DHT22;13082;52.374;4.946;2024-02-28T06:00:27;6.40;99.90
25092;DHT22;13082;52.374;4.946;2024-02-28T06:02:53;6.40;99.90
25092;DHT22;13082;52.374;4.946;2024-02-28T06:05:19;6.40;99.90
25092;DHT22;13082;52.374;4.946;2024-02-28T06:07:44;6.40;99.90
25092;DHT22;13082;52.374;4.946;2024-02-28T06:10:10;6.50;99.90
25092;DHT22;13082;52.374;4.946;2024-02-28T06:12:36;6.50;99.90
25092;DHT22;13082;52.374;4.946;2024-02-28T06:15:01;6.60;99.90
25092;DHT22;13082;52.374;4.946;2024-02-28T06:17:27;6.60;99.90
25092;DHT22;13082;52.374;4.946;2024-02-28T06:19:53;6.60;99.90
25092;DHT22;13082;52.374;4.946;2024-02-28T06:22:18;6.60;99.90
25092;DHT22;13082;52.374;4.946;2024-02-28T06:24:45;6.60;99.90
25092;DHT22;13082;52.374;4.946;2024-02-28T06:27:11;6.60;99.90
25092;DHT22;13082;52.374;4.946;2024-02-28T06:29:41;6.60;99.90
25092;DHT22;13082;52.374;4.946;2024-02-28T06:32:07;6.60;99.90
25092;DHT22;13082;52.374;4.946;2024-02-28T06:34:33;6.60;99.90
25092;DHT22;13082;52.374;4.946;2024-02-28T06:36:59;6.60;99.90
25092;DHT22;13082;52.374;4.946;2024-02-28T06:39:25;6.60;99.90
25092;DHT22;13082;52.374;4.946;2024-02-28T06:41:50;6.60;99.90
25092;DHT22;13082;52.374;4.946;2024-02-28T06:44:18;6.70;99.90
25092;DHT22;13082;52.374;4.946;2024-02-28T06:46:44;6.70;99.90
25092;DHT22;13082;52.374;4.946;2024-02-28T06:49:10;6.60;99.90
25092;DHT22;13082;52.374;4.946;2024-02-28T06:51:35;6.70;99.90
25092;DHT22;13082;52.374;4.946;2024-02-28T06:54:01;6.70;99.90
25092;DHT22;13082;52.374;4.946;2024-02-28T06:56:26;6.80;99.90
25092;DHT22;13082;52.374;4.946;2024-02-28T06:58:52;6.80;99.90
25092;DHT22;13082;52.374;4.946;2024-02-28T07:01:18;6.80;99.90
25092;DHT22;13082;52.374;4.946;2024-02-28T07:03:44;6.90;99.90
25092;DHT22;13082;52.374;4.946;2024-02-28T07:06:11;6.90;99.90
25092;DHT22;13082;52.374;4.946;2024-02-28T07:08:36;6.80;99.90
25092;DHT22;13082;52.374;4.946;2024-02-28T07:11:02;6.80;99.90
25092;DHT22;13082;52.374;4.946;2024-02-28T07:13:28;6.80;99.90
25092;DHT22;13082;52.374;4.946;2024-02-28T07:15:54;6.80;99.90
25092;DHT22;13082;52.374;4.946;2024-02-28T07:18:20;6.70;99.90
25092;DHT22;13082;52.374;4.946;2024-02-28T07:20:46;6.80;99.90
25092;DHT22;13082;52.374;4.946;2024-02-28T07:23:12;6.80;99.90
25092;DHT22;13082;52.374;4.946;2024-02-28T07:25:37;6.80;99.90
25092;DHT22;13082;52.374;4.946;2024-02-28T07:28:03;6.90;99.90
25092;DHT22;13082;52.374;4.946;2024-02-28T07:30:30;6.90;99.90
25092;DHT22;13082;52.374;4.946;2024-02-28T07:32:56;6.90;99.90
25092;DHT22;13082;52.374;4.946;2024-02-28T07:35:22;6.90;99.90
25092;DHT22;13082;52.374;4.946;2024-02-28T07:37:49;6.80;99.90
25092;DHT22;13082;52.374;4.946;2024-02-28T07:40:15;6.90;99.90
25092;DHT22;13082;52.374;4.946;2024-02-28T07:42:40;6.90;99.90
25092;DHT22;13082;52.374;4.946;2024-02-28T07:45:06;6.90;99.90
25092;DHT22;13082;52.374;4.946;2024-02-28T07:47:34;6.90;99.90
25092;DHT22;13082;52.374;4.946;2024-02-28T07:49:59;6.90;99.90
25092;DHT22;13082;52.374;4.946;2024-02-28T07:52:25;6.90;99.90
25092;DHT22;13082;52.374;4.946;2024-02-28T07:54:50;6.90;99.90
25092;DHT22;13082;52.374;4.946;2024-02-28T07:57:17;6.90;99.90
25092;DHT22;13082;52.374;4.946;2024-02-28T07:59:42;6.90;99.90
25092;DHT22;13082;52.374;4.946;2024-02-28T08:02:09;6.90;99.90
25092;DHT22;13082;52.374;4.946;2024-02-28T08:04:37;7.00;99.90
25092;DHT22;13082;52.374;4.946;2024-02-28T08:07:02;7.00;99.90
25092;DHT22;13082;52.374;4.946;2024-02-28T08:09:29;7.00;99.90
25092;DHT22;13082;52.374;4.946;2024-02-28T08:11:54;7.00;99.90
25092;DHT22;13082;52.374;4.946;2024-02-28T08:14:20;7.00;99.90
25092;DHT22;13082;52.374;4.946;2024-02-28T08:16:46;6.90;99.90
25092;DHT22;13082;52.374;4.946;2024-02-28T08:19:12;6.90;99.90
25092;DHT22;13082;52.374;4.946;2024-02-28T08:21:37;6.90;99.90
25092;DHT22;13082;52.374;4.946;2024-02-28T08:24:03;7.00;99.90
25092;DHT22;13082;52.374;4.946;2024-02-28T08:26:31;7.00;99.90
25092;DHT22;13082;52.374;4.946;2024-02-28T08:28:56;7.00;99.90
25092;DHT22;13082;52.374;4.946;2024-02-28T08:31:22;7.00;99.90
25092;DHT22;13082;52.374;4.946;2024-02-28T08:33:48;7.00;99.90
25092;DHT22;13082;52.374;4.946;2024-02-28T08:36:14;7.00;99.90
25092;DHT22;13082;52.374;4.946;2024-02-28T08:38:40;7.10;99.90
25092;DHT22;13082;52.374;4.946;2024-02-28T08:41:07;7.10;99.90
25092;DHT22;13082;52.374;4.946;2024-02-28T08:43:37;7.10;99.90
25092;DHT22;13082;52.374;4.946;2024-02-28T08:46:03;7.20;99.90
25092;DHT22;13082;52.374;4.946;2024-02-28T08:48:29;7.10;99.90
25092;DHT22;13082;52.374;4.946;2024-02-28T08:50:54;7.20;99.90
25092;DHT22;13082;52.374;4.946;2024-02-28T08:53:20;7.20;99.90
25092;DHT22;13082;52.374;4.946;2024-02-28T08:55:46;7.20;99.90
25092;DHT22;13082;52.374;4.946;2024-02-28T08:58:12;7.20;99.90
25092;DHT22;13082;52.374;4.946;2024-02-28T09:00:37;7.20;99.90
25092;DHT22;13082;52.374;4.946;2024-02-28T09:03:04;7.30;99.90
25092;DHT22;13082;52.374;4.946;2024-02-28T09:05:30;7.40;99.90
25092;DHT22;13082;52.374;4.946;2024-02-28T09:07:55;7.40;99.90
25092;DHT22;13082;52.374;4.946;2024-02-28T09:10:23;7.40;99.90
25092;DHT22;13082;52.374;4.946;2024-02-28T09:12:50;7.40;99.90
25092;DHT22;13082;52.374;4.946;2024-02-28T09:15:16;7.50;99.90
25092;DHT22;13082;52.374;4.946;2024-02-28T09:17:41;7.50;99.90
25092;DHT22;13082;52.374;4.946;2024-02-28T09:20:07;7.50;99.90
25092;DHT22;13082;52.374;4.946;2024-02-28T09:22:33;7.60;99.90
25092;DHT22;13082;52.374;4.946;2024-02-28T09:25:00;7.60;99.90
25092;DHT22;13082;52.374;4.946;2024-02-28T09:27:29;7.60;99.90
25092;DHT22;13082;52.374;4.946;2024-02-28T09:29:55;7.60;99.90
25092;DHT22;13082;52.374;4.946;2024-02-28T09:32:20;7.70;99.90
25092;DHT22;13082;52.374;4.946;2024-02-28T09:34:46;7.70;99.90
25092;DHT22;13082;52.374;4.946;2024-02-28T09:37:11;7.70;99.90
25092;DHT22;13082;52.374;4.946;2024-02-28T09:39:43;7.70;99.90
25092;DHT22;13082;52.374;4.946;2024-02-28T09:42:09;7.70;99.90
25092;DHT22;13082;52.374;4.946;2024-02-28T09:44:36;7.70;99.90
25092;DHT22;13082;52.374;4.946;2024-02-28T09:47:02;7.70;99.90
25092;DHT22;13082;52.374;4.946;2024-02-28T09:49:31;7.70;99.90
25092;DHT22;13082;52.374;4.946;2024-02-28T09:51:57;7.70;99.90
25092;DHT22;13082;52.374;4.946;2024-02-28T09:54:23;7.80;99.90
25092;DHT22;13082;52.374;4.946;2024-02-28T09:56:49;7.80;99.90
25092;DHT22;13082;52.374;4.946;2024-02-28T09:59:18;7.80;99.90
25092;DHT22;13082;52.374;4.946;2024-02-28T10:02:04;7.80;99.90
25092;DHT22;13082;52.374;4.946;2024-02-28T10:04:32;7.80;99.90
25092;DHT22;13082;52.374;4.946;2024-02-28T10:07:10;7.80;99.90
25092;DHT22;13082;52.374;4.946;2024-02-28T10:09:38;7.80;99.90
25092;DHT22;13082;52.374;4.946;2024-02-28T10:12:04;7.80;99.90
25092;DHT22;13082;52.374;4.946;2024-02-28T10:14:30;7.80;99.90
25092;DHT22;13082;52.374;4.946;2024-02-28T10:16:56;7.80;99.90
25092;DHT22;13082;52.374;4.946;2024-02-28T10:19:21;7.80;99.90
25092;DHT22;13082;52.374;4.946;2024-02-28T10:21:47;7.80;99.90
25092;DHT22;13082;52.374;4.946;2024-02-28T10:24:13;7.70;99.90
25092;DHT22;13082;52.374;4.946;2024-02-28T10:26:46;7.80;99.90
25092;DHT22;13082;52.374;4.946;2024-02-28T10:29:24;7.90;99.90
25092;DHT22;13082;52.374;4.946;2024-02-28T10:31:55;7.90;99.90
25092;DHT22;13082;52.374;4.946;2024-02-28T10:34:20;7.90;99.90
25092;DHT22;13082;52.374;4.946;2024-02-28T10:36:46;8.00;99.90
25092;DHT22;13082;52.374;4.946;2024-02-28T10:39:12;8.00;99.90
25092;DHT22;13082;52.374;4.946;2024-02-28T10:41:39;8.10;99.90
25092;DHT22;13082;52.374;4.946;2024-02-28T10:44:04;8.10;99.90
25092;DHT22;13082;52.374;4.946;2024-02-28T10:46:33;8.10;99.90
25092;DHT22;13082;52.374;4.946;2024-02-28T10:48:59;8.10;99.90
25092;DHT22;13082;52.374;4.946;2024-02-28T10:51:26;8.20;99.90
25092;DHT22;13082;52.374;4.946;2024-02-28T10:54:11;8.20;99.90
25092;DHT22;13082;52.374;4.946;2024-02-28T10:56:41;8.30;99.90
25092;DHT22;13082;52.374;4.946;2024-02-28T10:59:08;8.40;99.90
25092;DHT22;13082;52.374;4.946;2024-02-28T11:01:41;8.40;99.90
25092;DHT22;13082;52.374;4.946;2024-02-28T11:04:14;8.50;99.90
25092;DHT22;13082;52.374;4.946;2024-02-28T11:06:54;8.60;99.90
25092;DHT22;13082;52.374;4.946;2024-02-28T11:09:24;8.60;99.90
25092;DHT22;13082;52.374;4.946;2024-02-28T11:11:53;8.70;99.90
25092;DHT22;13082;52.374;4.946;2024-02-28T11:14:21;8.80;99.90
25092;DHT22;13082;52.374;4.946;2024-02-28T11:16:48;8.90;99.90
25092;DHT22;13082;52.374;4.946;2024-02-28T11:19:20;9.00;99.90
25092;DHT22;13082;52.374;4.946;2024-02-28T11:21:53;9.00;99.90
25092;DHT22;13082;52.374;4.946;2024-02-28T11:24:23;9.20;99.90
25092;DHT22;13082;52.374;4.946;2024-02-28T11:26:52;9.20;99.90
25092;DHT22;13082;52.374;4.946;2024-02-28T11:29:25;9.30;99.90
25092;DHT22;13082;52.374;4.946;2024-02-28T11:31:52;9.30;99.90
25092;DHT22;13082;52.374;4.946;2024-02-28T11:34:18;9.40;99.90
25092;DHT22;13082;52.374;4.946;2024-02-28T11:36:47;9.40;99.90
25092;DHT22;13082;52.374;4.946;2024-02-28T11:39:13;9.40;99.90
25092;DHT22;13082;52.374;4.946;2024-02-28T11:41:39;9.40;99.90
25092;DHT22;13082;52.374;4.946;2024-02-28T11:44:05;9.40;99.90
25092;DHT22;13082;52.374;4.946;2024-02-28T11:46:31;9.40;99.90
25092;DHT22;13082;52.374;4.946;2024-02-28T11:48:56;9.40;99.90
25092;DHT22;13082;52.374;4.946;2024-02-28T11:51:22;9.40;99.90
25092;DHT22;13082;52.374;4.946;2024-02-28T11:53:48;9.40;99.90
25092;DHT22;13082;52.374;4.946;2024-02-28T11:56:14;9.40;99.90
25092;DHT22;13082;52.374;4.946;2024-02-28T11:58:52;9.40;99.90
25092;DHT22;13082;52.374;4.946;2024-02-28T12:01:19;9.50;99.90
25092;DHT22;13082;52.374;4.946;2024-02-28T12:03:45;9.50;99.90
25092;DHT22;13082;52.374;4.946;2024-02-28T12:06:14;9.60;99.90
25092;DHT22;13082;52.374;4.946;2024-02-28T12:08:39;9.60;99.90
25092;DHT22;13082;52.374;4.946;2024-02-28T12:11:08;9.60;99.90
25092;DHT22;13082;52.374;4.946;2024-02-28T12:13:37;9.60;99.90
25092;DHT22;13082;52.374;4.946;2024-02-28T12:16:03;9.70;99.90
25092;DHT22;13082;52.374;4.946;2024-02-28T12:18:29;9.70;99.90
25092;DHT22;13082;52.374;4.946;2024-02-28T12:20:55;9.80;99.90
25092;DHT22;13082;52.374;4.946;2024-02-28T12:23:20;9.80;99.90
25092;DHT22;13082;52.374;4.946;2024-02-28T12:25:46;9.90;99.90
25092;DHT22;13082;52.374;4.946;2024-02-28T12:28:12;9.90;99.90
25092;DHT22;13082;52.374;4.946;2024-02-28T12:30:41;9.90;99.90
25092;DHT22;13082;52.374;4.946;2024-02-28T12:33:11;9.90;99.90
25092;DHT22;13082;52.374;4.946;2024-02-28T12:35:39;9.80;99.90
25092;DHT22;13082;52.374;4.946;2024-02-28T12:38:07;9.80;99.90
25092;DHT22;13082;52.374;4.946;2024-02-28T12:40:32;9.70;99.90
25092;DHT22;13082;52.374;4.946;2024-02-28T12:42:58;9.80;99.90
25092;DHT22;13082;52.374;4.946;2024-02-28T12:45:23;9.80;99.90
25092;DHT22;13082;52.374;4.946;2024-02-28T12:47:49;9.70;99.90
25092;DHT22;13082;52.374;4.946;2024-02-28T12:50:15;9.70;99.90
25092;DHT22;13082;52.374;4.946;2024-02-28T12:52:40;9.70;99.90
25092;DHT22;13082;52.374;4.946;2024-02-28T12:55:06;9.70;99.90
25092;DHT22;13082;52.374;4.946;2024-02-28T12:57:32;9.70;99.90
25092;DHT22;13082;52.374;4.946;2024-02-28T12:59:57;9.70;99.90
25092;DHT22;13082;52.374;4.946;2024-02-28T13:02:23;9.70;99.90
25092;DHT22;13082;52.374;4.946;2024-02-28T13:04:49;9.60;99.90
25092;DHT22;13082;52.374;4.946;2024-02-28T13:07:14;9.70;99.90
25092;DHT22;13082;52.374;4.946;2024-02-28T13:09:41;9.70;99.90
25092;DHT22;13082;52.374;4.946;2024-02-28T13:12:07;9.70;99.90
25092;DHT22;13082;52.374;4.946;2024-02-28T13:14:34;9.70;99.90
25092;DHT22;13082;52.374;4.946;2024-02-28T13:16:59;9.70;99.90
25092;DHT22;13082;52.374;4.946;2024-02-28T13:19:25;9.70;99.90
25092;DHT22;13082;52.374;4.946;2024-02-28T13:21:50;9.70;99.90
25092;DHT22;13082;52.374;4.946;2024-02-28T13:24:16;9.70;99.90
25092;DHT22;13082;52.374;4.946;2024-02-28T13:26:42;9.70;99.90
25092;DHT22;13082;52.374;4.946;2024-02-28T13:29:08;9.80;99.90
25092;DHT22;13082;52.374;4.946;2024-02-28T13:31:34;9.80;99.90
25092;DHT22;13082;52.374;4.946;2024-02-28T13:34:00;9.70;99.90
25092;DHT22;13082;52.374;4.946;2024-02-28T13:36:26;9.70;99.90
25092;DHT22;13082;52.374;4.946;2024-02-28T13:38:51;9.80;99.90
25092;DHT22;13082;52.374;4.946;2024-02-28T13:41:17;9.80;99.90
25092;DHT22;13082;52.374;4.946;2024-02-28T13:43:43;9.70;99.90
25092;DHT22;13082;52.374;4.946;2024-02-28T13:46:08;9.70;99.90
25092;DHT22;13082;52.374;4.946;2024-02-28T13:48:35;9.70;99.90
25092;DHT22;13082;52.374;4.946;2024-02-28T13:51:01;9.70;99.90
25092;DHT22;13082;52.374;4.946;2024-02-28T13:53:29;9.70;99.90
25092;DHT22;13082;52.374;4.946;2024-02-28T13:55:55;9.70;99.90
25092;DHT22;13082;52.374;4.946;2024-02-28T13:58:21;9.70;99.90
25092;DHT22;13082;52.374;4.946;2024-02-28T14:00:47;9.80;99.90
25092;DHT22;13082;52.374;4.946;2024-02-28T14:03:13;9.80;99.90
25092;DHT22;13082;52.374;4.946;2024-02-28T14:05:38;9.70;99.90
25092;DHT22;13082;52.374;4.946;2024-02-28T14:08:05;9.70;99.90
25092;DHT22;13082;52.374;4.946;2024-02-28T14:10:33;9.70;99.90
25092;DHT22;13082;52.374;4.946;2024-02-28T14:12:58;9.60;99.90
25092;DHT22;13082;52.374;4.946;2024-02-28T14:15:24;9.60;99.90
25092;DHT22;13082;52.374;4.946;2024-02-28T14:17:50;9.60;99.90
25092;DHT22;13082;52.374;4.946;2024-02-28T14:20:17;9.60;99.90
25092;DHT22;13082;52.374;4.946;2024-02-28T14:22:43;9.60;99.90
25092;DHT22;13082;52.374;4.946;2024-02-28T14:25:18;9.60;99.90
25092;DHT22;13082;52.374;4.946;2024-02-28T14:27:46;9.60;99.90
25092;DHT22;13082;52.374;4.946;2024-02-28T14:30:13;9.50;99.90
25092;DHT22;13082;52.374;4.946;2024-02-28T14:32:40;9.50;99.90
25092;DHT22;13082;52.374;4.946;2024-02-28T14:35:07;9.40;99.90
25092;DHT22;13082;52.374;4.946;2024-02-28T14:37:37;9.40;99.90
25092;DHT22;13082;52.374;4.946;2024-02-28T14:40:05;9.40;99.90
25092;DHT22;13082;52.374;4.946;2024-02-28T14:42:44;9.40;99.90
25092;DHT22;13082;52.374;4.946;2024-02-28T14:45:11;9.40;99.90
25092;DHT22;13082;52.374;4.946;2024-02-28T14:47:38;9.40;99.90
25092;DHT22;13082;52.374;4.946;2024-02-28T14:50:05;9.40;99.90
25092;DHT22;13082;52.374;4.946;2024-02-28T14:52:31;9.40;99.90
25092;DHT22;13082;52.374;4.946;2024-02-28T14:54:56;9.30;99.90
25092;DHT22;13082;52.374;4.946;2024-02-28T14:57:22;9.30;99.90
25092;DHT22;13082;52.374;4.946;2024-02-28T14:59:48;9.40;99.90
25092;DHT22;13082;52.374;4.946;2024-02-28T15:02:13;9.40;99.90
25092;DHT22;13082;52.374;4.946;2024-02-28T15:04:39;9.50;99.90
25092;DHT22;13082;52.374;4.946;2024-02-28T15:07:05;9.50;99.90
25092;DHT22;13082;52.374;4.946;2024-02-28T15:09:30;9.60;99.90
25092;DHT22;13082;52.374;4.946;2024-02-28T15:11:56;9.60;99.90
25092;DHT22;13082;52.374;4.946;2024-02-28T15:14:23;9.60;99.90
25092;DHT22;13082;52.374;4.946;2024-02-28T15:16:49;9.60;99.90
25092;DHT22;13082;52.374;4.946;2024-02-28T15:19:14;9.60;99.90
25092;DHT22;13082;52.374;4.946;2024-02-28T15:21:40;9.60;99.90
25092;DHT22;13082;52.374;4.946;2024-02-28T15:24:07;9.60;99.90
25092;DHT22;13082;52.374;4.946;2024-02-28T15:26:32;9.60;99.90
25092;DHT22;13082;52.374;4.946;2024-02-28T15:28:58;9.70;99.90
25092;DHT22;13082;52.374;4.946;2024-02-28T15:31:24;9.70;99.90
25092;DHT22;13082;52.374;4.946;2024-02-28T15:33:49;9.60;99.90
25092;DHT22;13082;52.374;4.946;2024-02-28T15:36:15;9.60;99.90
25092;DHT22;13082;52.374;4.946;2024-02-28T15:38:41;9.60;99.90
25092;DHT22;13082;52.374;4.946;2024-02-28T15:41:07;9.60;99.90